sensor_id;sensor_type;location;lat;lon;timestamp;pressure;altitude;pressure_sealevel;temperature;humidity
78679;BME280;67994;59.334;13.528;2023-02-28T00:00:00;102400.0;;;0.4;76.5
78679;BME280;67994;59.334;13.528;2023-02-28T00:01:00;102400.0;;;0.4;76.9
78679;BME280;67994;59.334;13.528;2023-02-28T00:02:00;102400.0;;;0.4;76.3
78679;BME280;67994;59.334;13.528;2023-02-28T00:03:00;102400.0;;;0.4;76.4
78679;BME280;67994;59.334;13.528;2023-02-28T00:04:00;102400.0;;;0.5;77.3
78679;BME280;67994;59.334;13.528;2023-02-28T00:05:00;102400.0;;;0.4;77.2
78679;BME280;67994;59.334;13.528;2023-02-28T00:06:00;102400.0;;;0.4;77.2
78679;BME280;67994;59.334;13.528;2023-02-28T00:07:00;102400.0;;;0.5;77.1
78679;BME280;67994;59.334;13.528;2023-02-28T00:08:00;102400.0;;;0.4;76.6
78679;BME280;67994;59.334;13.528;2023-02-28T00:09:00;102400.0;;;0.3;76.9
78679;BME280;67994;59.334;13.528;2023-02-28T00:10:00;102400.0;;;0.3;76.9
78679;BME280;67994;59.334;13.528;2023-02-28T00:11:01;102400.0;;;0.3;77.1
78679;BME280;67994;59.334;13.528;2023-02-28T00:12:00;102400.0;;;0.2;77.0
78679;BME280;67994;59.334;13.528;2023-02-28T00:13:03;102400.0;;;-0.0;77.9
78679;BME280;67994;59.334;13.528;2023-02-28T00:14:00;102400.0;;;0.1;77.9
78679;BME280;67994;59.334;13.528;2023-02-28T00:15:00;102400.0;;;0.2;77.5
78679;BME280;67994;59.334;13.528;2023-02-28T00:16:00;102400.0;;;0.2;76.8
78679;BME280;67994;59.334;13.528;2023-02-28T00:17:00;102400.0;;;0.2;76.8
78679;BME280;67994;59.334;13.528;2023-02-28T00:18:01;102400.0;;;0.2;77.6
78679;BME280;67994;59.334;13.528;2023-02-28T00:19:00;102400.0;;;0.3;77.8
78679;BME280;67994;59.334;13.528;2023-02-28T00:20:00;102400.0;;;0.2;77.6
78679;BME280;67994;59.334;13.528;2023-02-28T00:21:00;102400.0;;;0.3;77.5
78679;BME280;67994;59.334;13.528;2023-02-28T00:22:00;102400.0;;;0.2;77.5
78679;BME280;67994;59.334;13.528;2023-02-28T00:23:00;102400.0;;;0.3;77.3
78679;BME280;67994;59.334;13.528;2023-02-28T00:24:00;102400.0;;;0.3;77.2
78679;BME280;67994;59.334;13.528;2023-02-28T00:25:00;102400.0;;;0.3;78.0
78679;BME280;67994;59.334;13.528;2023-02-28T00:26:00;102400.0;;;0.3;77.9
78679;BME280;67994;59.334;13.528;2023-02-28T00:27:00;102400.0;;;0.3;77.8
78679;BME280;67994;59.334;13.528;2023-02-28T00:28:00;102400.0;;;0.3;77.8
78679;BME280;67994;59.334;13.528;2023-02-28T00:29:00;102400.0;;;0.3;77.6
78679;BME280;67994;59.334;13.528;2023-02-28T00:30:00;102400.0;;;0.3;77.3
78679;BME280;67994;59.334;13.528;2023-02-28T00:31:00;102400.0;;;0.3;77.4
78679;BME280;67994;59.334;13.528;2023-02-28T00:32:00;102400.0;;;0.3;78.1
78679;BME280;67994;59.334;13.528;2023-02-28T00:33:00;102400.0;;;0.2;77.6
78679;BME280;67994;59.334;13.528;2023-02-28T00:34:00;102400.0;;;0.3;78.0
78679;BME280;67994;59.334;13.528;2023-02-28T00:35:00;102400.0;;;0.3;78.2
78679;BME280;67994;59.334;13.528;2023-02-28T00:36:03;102400.0;;;0.3;77.2
78679;BME280;67994;59.334;13.528;2023-02-28T00:37:00;102400.0;;;0.2;77.1
78679;BME280;67994;59.334;13.528;2023-02-28T00:38:00;102400.0;;;0.4;77.3
78679;BME280;67994;59.334;13.528;2023-02-28T00:39:00;102400.0;;;0.2;77.1
78679;BME280;67994;59.334;13.528;2023-02-28T00:40:00;102400.0;;;0.3;77.7
78679;BME280;67994;59.334;13.528;2023-02-28T00:41:00;102400.0;;;0.2;77.6
78679;BME280;67994;59.334;13.528;2023-02-28T00:42:00;102400.0;;;0.3;78.0
78679;BME280;67994;59.334;13.528;2023-02-28T00:43:00;102400.0;;;0.3;77.6
78679;BME280;67994;59.334;13.528;2023-02-28T00:44:00;102400.0;;;0.4;77.7
78679;BME280;67994;59.334;13.528;2023-02-28T00:45:00;102400.0;;;0.3;77.9
78679;BME280;67994;59.334;13.528;2023-02-28T00:46:00;102400.0;;;0.4;77.9
78679;BME280;67994;59.334;13.528;2023-02-28T00:47:00;102400.0;;;0.5;77.7
78679;BME280;67994;59.334;13.528;2023-02-28T00:48:00;102400.0;;;0.5;77.6
78679;BME280;67994;59.334;13.528;2023-02-28T00:49:00;102400.0;;;0.3;77.5
78679;BME280;67994;59.334;13.528;2023-02-28T00:50:00;102400.0;;;0.4;77.4
78679;BME280;67994;59.334;13.528;2023-02-28T00:51:00;102400.0;;;0.4;77.7
78679;BME280;67994;59.334;13.528;2023-02-28T00:52:00;102400.0;;;0.5;77.1
78679;BME280;67994;59.334;13.528;2023-02-28T00:53:00;102400.0;;;0.4;77.0
78679;BME280;67994;59.334;13.528;2023-02-28T00:54:00;102400.0;;;0.4;77.3
78679;BME280;67994;59.334;13.528;2023-02-28T00:55:00;102400.0;;;0.4;77.1
78679;BME280;67994;59.334;13.528;2023-02-28T00:56:00;102400.0;;;0.3;77.4
78679;BME280;67994;59.334;13.528;2023-02-28T00:57:00;102400.0;;;0.4;77.5
78679;BME280;67994;59.334;13.528;2023-02-28T00:58:00;102400.0;;;0.4;77.4
78679;BME280;67994;59.334;13.528;2023-02-28T00:59:00;102400.0;;;0.4;77.2
78679;BME280;67994;59.334;13.528;2023-02-28T01:00:00;102400.0;;;0.4;77.3
78679;BME280;67994;59.334;13.528;2023-02-28T01:01:00;102400.0;;;0.4;77.2
78679;BME280;67994;59.334;13.528;2023-02-28T01:02:00;102400.0;;;0.4;77.5
78679;BME280;67994;59.334;13.528;2023-02-28T01:03:00;102400.0;;;0.4;77.2
78679;BME280;67994;59.334;13.528;2023-02-28T01:04:00;102400.0;;;0.4;77.3
78679;BME280;67994;59.334;13.528;2023-02-28T01:05:00;102400.0;;;0.4;77.5
78679;BME280;67994;59.334;13.528;2023-02-28T01:06:00;102400.0;;;0.5;77.5
78679;BME280;67994;59.334;13.528;2023-02-28T01:07:00;102400.0;;;0.5;77.4
78679;BME280;67994;59.334;13.528;2023-02-28T01:08:00;102400.0;;;0.4;77.4
78679;BME280;67994;59.334;13.528;2023-02-28T01:09:00;102400.0;;;0.3;77.9
78679;BME280;67994;59.334;13.528;2023-02-28T01:10:00;102400.0;;;0.4;77.4
78679;BME280;67994;59.334;13.528;2023-02-28T01:11:07;102400.0;;;0.4;77.4
78679;BME280;67994;59.334;13.528;2023-02-28T01:12:00;102400.0;;;0.4;76.8
78679;BME280;67994;59.334;13.528;2023-02-28T01:13:00;102400.0;;;0.4;77.1
78679;BME280;67994;59.334;13.528;2023-02-28T01:14:02;102400.0;;;0.4;77.0
78679;BME280;67994;59.334;13.528;2023-02-28T01:15:00;102400.0;;;0.4;77.0
78679;BME280;67994;59.334;13.528;2023-02-28T01:16:00;102400.0;;;0.3;77.1
78679;BME280;67994;59.334;13.528;2023-02-28T01:17:00;102400.0;;;0.4;77.1
78679;BME280;67994;59.334;13.528;2023-02-28T01:18:00;102400.0;;;0.3;76.8
78679;BME280;67994;59.334;13.528;2023-02-28T01:19:10;102400.0;;;0.4;77.1
78679;BME280;67994;59.334;13.528;2023-02-28T01:20:00;102400.0;;;0.4;77.0
78679;BME280;67994;59.334;13.528;2023-02-28T01:21:03;102400.0;;;0.5;77.0
78679;BME280;67994;59.334;13.528;2023-02-28T01:22:01;102400.0;;;0.5;76.9
78679;BME280;67994;59.334;13.528;2023-02-28T01:23:00;102400.0;;;0.5;77.3
78679;BME280;67994;59.334;13.528;2023-02-28T01:24:00;102400.0;;;0.5;77.2
78679;BME280;67994;59.334;13.528;2023-02-28T01:25:00;102400.0;;;0.5;77.1
78679;BME280;67994;59.334;13.528;2023-02-28T01:26:04;102400.0;;;0.4;77.0
78679;BME280;67994;59.334;13.528;2023-02-28T01:27:00;102400.0;;;0.6;77.0
78679;BME280;67994;59.334;13.528;2023-02-28T01:28:00;102400.0;;;0.6;76.7
78679;BME280;67994;59.334;13.528;2023-02-28T01:29:00;102400.0;;;0.6;76.6
78679;BME280;67994;59.334;13.528;2023-02-28T01:30:00;102400.0;;;0.7;76.6
78679;BME280;67994;59.334;13.528;2023-02-28T01:31:00;102400.0;;;0.6;76.5
78679;BME280;67994;59.334;13.528;2023-02-28T01:32:00;102400.0;;;0.7;76.5
78679;BME280;67994;59.334;13.528;2023-02-28T01:33:00;102400.0;;;0.7;76.5
78679;BME280;67994;59.334;13.528;2023-02-28T01:34:00;102400.0;;;0.7;76.4
78679;BME280;67994;59.334;13.528;2023-02-28T01:35:00;102400.0;;;0.7;76.6
78679;BME280;67994;59.334;13.528;2023-02-28T01:36:01;102400.0;;;0.7;76.7
78679;BME280;67994;59.334;13.528;2023-02-28T01:37:00;102400.0;;;0.7;76.6
78679;BME280;67994;59.334;13.528;2023-02-28T01:38:00;102400.0;;;0.7;76.6
78679;BME280;67994;59.334;13.528;2023-02-28T01:39:00;102400.0;;;0.7;76.7
78679;BME280;67994;59.334;13.528;2023-02-28T01:40:00;102400.0;;;0.7;76.7
78679;BME280;67994;59.334;13.528;2023-02-28T01:41:00;102400.0;;;0.7;76.7
78679;BME280;67994;59.334;13.528;2023-02-28T01:42:00;102400.0;;;0.6;76.8
78679;BME280;67994;59.334;13.528;2023-02-28T01:43:00;102400.0;;;0.6;76.8
78679;BME280;67994;59.334;13.528;2023-02-28T01:44:04;102400.0;;;0.6;77.0
78679;BME280;67994;59.334;13.528;2023-02-28T01:45:04;102400.0;;;0.6;76.9
78679;BME280;67994;59.334;13.528;2023-02-28T01:46:00;102400.0;;;0.6;76.9
78679;BME280;67994;59.334;13.528;2023-02-28T01:47:00;102400.0;;;0.5;77.1
78679;BME280;67994;59.334;13.528;2023-02-28T01:48:03;102400.0;;;0.6;77.1
78679;BME280;67994;59.334;13.528;2023-02-28T01:49:05;102400.0;;;0.5;77.3
78679;BME280;67994;59.334;13.528;2023-02-28T01:50:03;102400.0;;;0.5;77.3
78679;BME280;67994;59.334;13.528;2023-02-28T01:51:03;102400.0;;;0.5;77.2
78679;BME280;67994;59.334;13.528;2023-02-28T01:52:00;102400.0;;;0.5;77.3
78679;BME280;67994;59.334;13.528;2023-02-28T01:53:02;102400.0;;;0.5;77.3
78679;BME280;67994;59.334;13.528;2023-02-28T01:54:03;102400.0;;;0.5;77.3
78679;BME280;67994;59.334;13.528;2023-02-28T01:55:02;102400.0;;;0.5;77.4
78679;BME280;67994;59.334;13.528;2023-02-28T01:56:02;102400.0;;;0.4;77.5
78679;BME280;67994;59.334;13.528;2023-02-28T01:57:03;102400.0;;;0.5;77.2
78679;BME280;67994;59.334;13.528;2023-02-28T01:58:02;102400.0;;;0.5;77.3
78679;BME280;67994;59.334;13.528;2023-02-28T01:59:00;102400.0;;;0.4;77.4
78679;BME280;67994;59.334;13.528;2023-02-28T02:00:02;102400.0;;;0.5;77.3
78679;BME280;67994;59.334;13.528;2023-02-28T02:01:00;102400.0;;;0.5;77.2
78679;BME280;67994;59.334;13.528;2023-02-28T02:02:00;102400.0;;;0.4;77.3
78679;BME280;67994;59.334;13.528;2023-02-28T02:03:05;102400.0;;;0.4;77.1
78679;BME280;67994;59.334;13.528;2023-02-28T02:04:02;102400.0;;;0.3;77.1
78679;BME280;67994;59.334;13.528;2023-02-28T02:05:05;102400.0;;;0.3;77.3
78679;BME280;67994;59.334;13.528;2023-02-28T02:06:01;102400.0;;;0.3;77.5
78679;BME280;67994;59.334;13.528;2023-02-28T02:07:00;102400.0;;;0.3;77.3
78679;BME280;67994;59.334;13.528;2023-02-28T02:08:03;102400.0;;;0.3;77.3
78679;BME280;67994;59.334;13.528;2023-02-28T02:09:00;102400.0;;;0.3;76.7
78679;BME280;67994;59.334;13.528;2023-02-28T02:10:02;102400.0;;;0.2;76.8
78679;BME280;67994;59.334;13.528;2023-02-28T02:11:01;102400.0;;;0.1;77.4
78679;BME280;67994;59.334;13.528;2023-02-28T02:12:07;102400.0;;;0.2;77.2
78679;BME280;67994;59.334;13.528;2023-02-28T02:13:08;102400.0;;;0.2;77.4
78679;BME280;67994;59.334;13.528;2023-02-28T02:14:07;102400.0;;;0.1;77.1
78679;BME280;67994;59.334;13.528;2023-02-28T02:15:05;102300.0;;;0.2;77.3
78679;BME280;67994;59.334;13.528;2023-02-28T02:16:04;102300.0;;;0.0;77.3
78679;BME280;67994;59.334;13.528;2023-02-28T02:17:09;102300.0;;;0.1;77.1
78679;BME280;67994;59.334;13.528;2023-02-28T02:18:04;102400.0;;;0.0;77.4
78679;BME280;67994;59.334;13.528;2023-02-28T02:19:06;102400.0;;;0.1;77.4
78679;BME280;67994;59.334;13.528;2023-02-28T02:20:16;102400.0;;;0.1;77.2
78679;BME280;67994;59.334;13.528;2023-02-28T02:21:16;102400.0;;;0.1;77.5
78679;BME280;67994;59.334;13.528;2023-02-28T02:22:12;102400.0;;;0.1;77.7
78679;BME280;67994;59.334;13.528;2023-02-28T02:24:10;102400.0;;;0.1;77.8
78679;BME280;67994;59.334;13.528;2023-02-28T02:25:12;102400.0;;;0.1;77.8
78679;BME280;67994;59.334;13.528;2023-02-28T02:26:08;102400.0;;;0.1;77.4
78679;BME280;67994;59.334;13.528;2023-02-28T02:27:08;102300.0;;;0.1;77.7
78679;BME280;67994;59.334;13.528;2023-02-28T02:29:15;102300.0;;;-0.0;77.7
78679;BME280;67994;59.334;13.528;2023-02-28T02:30:08;102300.0;;;-0.1;77.6
78679;BME280;67994;59.334;13.528;2023-02-28T02:31:16;102300.0;;;-0.1;77.6
78679;BME280;67994;59.334;13.528;2023-02-28T02:32:09;102300.0;;;-0.2;77.6
78679;BME280;67994;59.334;13.528;2023-02-28T02:33:15;102300.0;;;-0.2;77.7
78679;BME280;67994;59.334;13.528;2023-02-28T02:35:03;102300.0;;;-0.2;77.8
78679;BME280;67994;59.334;13.528;2023-02-28T02:36:02;102300.0;;;-0.2;78.1
78679;BME280;67994;59.334;13.528;2023-02-28T02:37:08;102300.0;;;-0.3;78.3
78679;BME280;67994;59.334;13.528;2023-02-28T02:38:07;102300.0;;;-0.2;78.0
78679;BME280;67994;59.334;13.528;2023-02-28T02:39:06;102300.0;;;-0.2;78.0
78679;BME280;67994;59.334;13.528;2023-02-28T02:40:05;102300.0;;;-0.2;78.2
78679;BME280;67994;59.334;13.528;2023-02-28T02:41:06;102300.0;;;-0.2;77.9
78679;BME280;67994;59.334;13.528;2023-02-28T02:42:01;102300.0;;;-0.2;77.9
78679;BME280;67994;59.334;13.528;2023-02-28T02:43:02;102300.0;;;-0.2;77.9
78679;BME280;67994;59.334;13.528;2023-02-28T02:44:04;102300.0;;;-0.2;77.8
78679;BME280;67994;59.334;13.528;2023-02-28T02:45:03;102300.0;;;-0.2;77.8
78679;BME280;67994;59.334;13.528;2023-02-28T02:46:04;102300.0;;;-0.2;78.1
78679;BME280;67994;59.334;13.528;2023-02-28T02:47:03;102300.0;;;-0.2;78.2
78679;BME280;67994;59.334;13.528;2023-02-28T02:48:01;102300.0;;;-0.2;78.2
78679;BME280;67994;59.334;13.528;2023-02-28T02:49:04;102300.0;;;-0.2;78.4
78679;BME280;67994;59.334;13.528;2023-02-28T02:50:03;102300.0;;;-0.2;78.5
78679;BME280;67994;59.334;13.528;2023-02-28T02:51:02;102300.0;;;-0.2;78.5
78679;BME280;67994;59.334;13.528;2023-02-28T02:52:02;102300.0;;;-0.3;78.6
78679;BME280;67994;59.334;13.528;2023-02-28T02:53:02;102300.0;;;-0.2;78.6
78679;BME280;67994;59.334;13.528;2023-02-28T02:54:05;102300.0;;;-0.2;78.6
78679;BME280;67994;59.334;13.528;2023-02-28T02:55:01;102300.0;;;-0.2;78.5
78679;BME280;67994;59.334;13.528;2023-02-28T02:56:01;102300.0;;;-0.1;78.4
78679;BME280;67994;59.334;13.528;2023-02-28T02:57:04;102300.0;;;-0.2;78.0
78679;BME280;67994;59.334;13.528;2023-02-28T02:58:02;102300.0;;;-0.2;78.1
78679;BME280;67994;59.334;13.528;2023-02-28T02:59:03;102300.0;;;-0.1;78.1
78679;BME280;67994;59.334;13.528;2023-02-28T03:00:02;102300.0;;;-0.2;78.1
78679;BME280;67994;59.334;13.528;2023-02-28T03:01:02;102300.0;;;-0.3;77.9
78679;BME280;67994;59.334;13.528;2023-02-28T03:02:02;102300.0;;;-0.3;78.1
78679;BME280;67994;59.334;13.528;2023-02-28T03:03:01;102300.0;;;-0.2;78.0
78679;BME280;67994;59.334;13.528;2023-02-28T03:04:03;102300.0;;;-0.3;77.6
78679;BME280;67994;59.334;13.528;2023-02-28T03:05:02;102300.0;;;-0.3;77.8
78679;BME280;67994;59.334;13.528;2023-02-28T03:06:01;102300.0;;;-0.3;78.1
78679;BME280;67994;59.334;13.528;2023-02-28T03:07:00;102300.0;;;-0.3;78.2
78679;BME280;67994;59.334;13.528;2023-02-28T03:08:03;102300.0;;;-0.3;78.3
78679;BME280;67994;59.334;13.528;2023-02-28T03:09:00;102300.0;;;-0.4;78.3
78679;BME280;67994;59.334;13.528;2023-02-28T03:10:00;102300.0;;;-0.3;78.5
78679;BME280;67994;59.334;13.528;2023-02-28T03:11:02;102300.0;;;-0.4;78.3
78679;BME280;67994;59.334;13.528;2023-02-28T03:12:00;102300.0;;;-0.4;78.7
78679;BME280;67994;59.334;13.528;2023-02-28T03:13:09;102300.0;;;-0.5;78.7
78679;BME280;67994;59.334;13.528;2023-02-28T03:14:12;102300.0;;;-0.5;78.8
78679;BME280;67994;59.334;13.528;2023-02-28T03:15:08;102400.0;;;-0.4;78.6
78679;BME280;67994;59.334;13.528;2023-02-28T03:16:10;102400.0;;;-0.5;78.9
78679;BME280;67994;59.334;13.528;2023-02-28T03:17:17;102400.0;;;-0.5;78.7
78679;BME280;67994;59.334;13.528;2023-02-28T03:18:04;102400.0;;;-0.5;78.5
78679;BME280;67994;59.334;13.528;2023-02-28T03:19:13;102400.0;;;-0.6;78.5
78679;BME280;67994;59.334;13.528;2023-02-28T03:20:04;102400.0;;;-0.7;78.4
78679;BME280;67994;59.334;13.528;2023-02-28T03:21:06;102400.0;;;-0.6;78.1
78679;BME280;67994;59.334;13.528;2023-02-28T03:22:12;102400.0;;;-0.6;79.2
78679;BME280;67994;59.334;13.528;2023-02-28T03:23:07;102400.0;;;-0.7;78.8
78679;BME280;67994;59.334;13.528;2023-02-28T03:24:03;102400.0;;;-0.6;79.1
78679;BME280;67994;59.334;13.528;2023-02-28T03:25:06;102400.0;;;-0.6;78.9
78679;BME280;67994;59.334;13.528;2023-02-28T03:26:04;102400.0;;;-0.7;79.2
78679;BME280;67994;59.334;13.528;2023-02-28T03:27:07;102400.0;;;-0.6;79.1
78679;BME280;67994;59.334;13.528;2023-02-28T03:28:02;102400.0;;;-0.7;78.5
78679;BME280;67994;59.334;13.528;2023-02-28T03:29:03;102400.0;;;-0.6;78.7
78679;BME280;67994;59.334;13.528;2023-02-28T03:30:03;102400.0;;;-0.7;78.2
78679;BME280;67994;59.334;13.528;2023-02-28T03:31:03;102400.0;;;-0.7;78.5
78679;BME280;67994;59.334;13.528;2023-02-28T03:32:04;102400.0;;;-0.6;78.8
78679;BME280;67994;59.334;13.528;2023-02-28T03:33:05;102400.0;;;-0.7;78.3
78679;BME280;67994;59.334;13.528;2023-02-28T03:34:08;102400.0;;;-0.7;78.3
78679;BME280;67994;59.334;13.528;2023-02-28T03:35:03;102400.0;;;-0.8;78.3
78679;BME280;67994;59.334;13.528;2023-02-28T03:36:04;102400.0;;;-0.8;78.2
78679;BME280;67994;59.334;13.528;2023-02-28T03:37:02;102400.0;;;-0.8;78.9
78679;BME280;67994;59.334;13.528;2023-02-28T03:38:05;102400.0;;;-0.8;78.4
78679;BME280;67994;59.334;13.528;2023-02-28T03:39:02;102300.0;;;-0.9;78.3
78679;BME280;67994;59.334;13.528;2023-02-28T03:40:02;102300.0;;;-1.0;78.8
78679;BME280;67994;59.334;13.528;2023-02-28T03:41:05;102300.0;;;-0.9;78.9
78679;BME280;67994;59.334;13.528;2023-02-28T03:42:03;102300.0;;;-0.8;78.8
78679;BME280;67994;59.334;13.528;2023-02-28T03:43:03;102300.0;;;-1.1;78.9
78679;BME280;67994;59.334;13.528;2023-02-28T03:44:07;102300.0;;;-1.0;78.8
78679;BME280;67994;59.334;13.528;2023-02-28T03:45:02;102300.0;;;-0.9;78.7
78679;BME280;67994;59.334;13.528;2023-02-28T03:46:01;102300.0;;;-0.9;78.7
78679;BME280;67994;59.334;13.528;2023-02-28T03:47:02;102300.0;;;-0.9;78.9
78679;BME280;67994;59.334;13.528;2023-02-28T03:48:02;102300.0;;;-1.0;79.3
78679;BME280;67994;59.334;13.528;2023-02-28T03:49:03;102300.0;;;-1.1;79.4
78679;BME280;67994;59.334;13.528;2023-02-28T03:50:05;102400.0;;;-1.1;80.0
78679;BME280;67994;59.334;13.528;2023-02-28T03:51:00;102400.0;;;-1.1;80.0
78679;BME280;67994;59.334;13.528;2023-02-28T03:52:02;102400.0;;;-1.0;80.2
78679;BME280;67994;59.334;13.528;2023-02-28T03:53:02;102300.0;;;-1.0;79.4
78679;BME280;67994;59.334;13.528;2023-02-28T03:54:05;102300.0;;;-1.0;79.6
78679;BME280;67994;59.334;13.528;2023-02-28T03:55:02;102300.0;;;-1.0;78.9
78679;BME280;67994;59.334;13.528;2023-02-28T03:56:03;102300.0;;;-0.9;79.2
78679;BME280;67994;59.334;13.528;2023-02-28T03:57:04;102300.0;;;-1.0;79.1
78679;BME280;67994;59.334;13.528;2023-02-28T03:58:05;102300.0;;;-1.1;79.2
78679;BME280;67994;59.334;13.528;2023-02-28T03:59:03;102300.0;;;-1.0;79.3
78679;BME280;67994;59.334;13.528;2023-02-28T04:00:04;102300.0;;;-1.0;79.3
78679;BME280;67994;59.334;13.528;2023-02-28T04:01:07;102300.0;;;-1.1;79.5
78679;BME280;67994;59.334;13.528;2023-02-28T04:02:00;102300.0;;;-1.1;79.5
78679;BME280;67994;59.334;13.528;2023-02-28T04:03:00;102400.0;;;-1.2;80.1
78679;BME280;67994;59.334;13.528;2023-02-28T04:04:00;102400.0;;;-1.3;80.8
78679;BME280;67994;59.334;13.528;2023-02-28T04:05:00;102400.0;;;-1.4;81.1
78679;BME280;67994;59.334;13.528;2023-02-28T04:06:00;102300.0;;;-1.3;80.7
78679;BME280;67994;59.334;13.528;2023-02-28T04:07:02;102300.0;;;-1.2;80.5
78679;BME280;67994;59.334;13.528;2023-02-28T04:08:04;102300.0;;;-1.1;80.7
78679;BME280;67994;59.334;13.528;2023-02-28T04:09:01;102300.0;;;-1.1;80.7
78679;BME280;67994;59.334;13.528;2023-02-28T04:10:00;102300.0;;;-1.1;79.9
78679;BME280;67994;59.334;13.528;2023-02-28T04:11:04;102300.0;;;-1.1;79.5
78679;BME280;67994;59.334;13.528;2023-02-28T04:12:00;102300.0;;;-1.2;79.4
78679;BME280;67994;59.334;13.528;2023-02-28T04:13:00;102300.0;;;-1.1;80.0
78679;BME280;67994;59.334;13.528;2023-02-28T04:14:00;102400.0;;;-1.1;80.7
78679;BME280;67994;59.334;13.528;2023-02-28T04:15:00;102400.0;;;-1.1;80.8
78679;BME280;67994;59.334;13.528;2023-02-28T04:16:00;102400.0;;;-1.1;80.7
78679;BME280;67994;59.334;13.528;2023-02-28T04:17:00;102400.0;;;-1.0;81.2
78679;BME280;67994;59.334;13.528;2023-02-28T04:18:00;102400.0;;;-0.9;80.7
78679;BME280;67994;59.334;13.528;2023-02-28T04:19:00;102400.0;;;-0.9;80.3
78679;BME280;67994;59.334;13.528;2023-02-28T04:20:00;102300.0;;;-0.8;80.1
78679;BME280;67994;59.334;13.528;2023-02-28T04:21:00;102300.0;;;-1.0;80.2
78679;BME280;67994;59.334;13.528;2023-02-28T04:22:00;102300.0;;;-0.9;80.7
78679;BME280;67994;59.334;13.528;2023-02-28T04:23:00;102300.0;;;-0.8;80.2
78679;BME280;67994;59.334;13.528;2023-02-28T04:24:00;102400.0;;;-1.0;80.4
78679;BME280;67994;59.334;13.528;2023-02-28T04:25:00;102400.0;;;-0.9;80.4
78679;BME280;67994;59.334;13.528;2023-02-28T04:26:00;102300.0;;;-0.9;80.3
78679;BME280;67994;59.334;13.528;2023-02-28T04:27:00;102300.0;;;-0.9;80.4
78679;BME280;67994;59.334;13.528;2023-02-28T04:28:00;102300.0;;;-0.9;80.2
78679;BME280;67994;59.334;13.528;2023-02-28T04:29:01;102300.0;;;-1.1;80.1
78679;BME280;67994;59.334;13.528;2023-02-28T04:30:00;102300.0;;;-1.1;80.9
78679;BME280;67994;59.334;13.528;2023-02-28T04:31:02;102300.0;;;-1.1;80.7
78679;BME280;67994;59.334;13.528;2023-02-28T04:32:01;102300.0;;;-1.2;80.7
78679;BME280;67994;59.334;13.528;2023-02-28T04:33:00;102300.0;;;-1.2;80.5
78679;BME280;67994;59.334;13.528;2023-02-28T04:34:00;102400.0;;;-1.1;80.1
78679;BME280;67994;59.334;13.528;2023-02-28T04:35:00;102400.0;;;-1.3;80.3
78679;BME280;67994;59.334;13.528;2023-02-28T04:36:01;102400.0;;;-1.3;80.3
78679;BME280;67994;59.334;13.528;2023-02-28T04:37:01;102300.0;;;-1.2;80.1
78679;BME280;67994;59.334;13.528;2023-02-28T04:38:00;102300.0;;;-1.2;79.7
78679;BME280;67994;59.334;13.528;2023-02-28T04:39:00;102300.0;;;-1.2;80.0
78679;BME280;67994;59.334;13.528;2023-02-28T04:40:00;102300.0;;;-1.3;80.0
78679;BME280;67994;59.334;13.528;2023-02-28T04:41:00;102300.0;;;-1.4;79.8
78679;BME280;67994;59.334;13.528;2023-02-28T04:42:00;102300.0;;;-1.3;80.8
78679;BME280;67994;59.334;13.528;2023-02-28T04:43:00;102300.0;;;-1.4;80.7
78679;BME280;67994;59.334;13.528;2023-02-28T04:44:00;102400.0;;;-1.3;80.5
78679;BME280;67994;59.334;13.528;2023-02-28T04:45:00;102300.0;;;-1.3;80.1
78679;BME280;67994;59.334;13.528;2023-02-28T04:46:01;102300.0;;;-1.3;79.8
78679;BME280;67994;59.334;13.528;2023-02-28T04:47:00;102300.0;;;-1.2;79.7
78679;BME280;67994;59.334;13.528;2023-02-28T04:48:00;102300.0;;;-1.2;80.5
78679;BME280;67994;59.334;13.528;2023-02-28T04:49:00;102300.0;;;-1.3;80.6
78679;BME280;67994;59.334;13.528;2023-02-28T04:50:00;102300.0;;;-1.4;80.0
78679;BME280;67994;59.334;13.528;2023-02-28T04:51:00;102300.0;;;-1.4;80.2
78679;BME280;67994;59.334;13.528;2023-02-28T04:52:00;102300.0;;;-1.3;80.4
78679;BME280;67994;59.334;13.528;2023-02-28T04:53:00;102300.0;;;-1.4;80.4
78679;BME280;67994;59.334;13.528;2023-02-28T04:54:00;102300.0;;;-1.3;80.4
78679;BME280;67994;59.334;13.528;2023-02-28T04:55:00;102300.0;;;-1.4;80.7
78679;BME280;67994;59.334;13.528;2023-02-28T04:56:00;102300.0;;;-1.6;81.1
78679;BME280;67994;59.334;13.528;2023-02-28T04:57:00;102300.0;;;-1.4;81.0
78679;BME280;67994;59.334;13.528;2023-02-28T04:58:00;102300.0;;;-1.6;80.2
78679;BME280;67994;59.334;13.528;2023-02-28T04:59:00;102300.0;;;-1.7;80.6
78679;BME280;67994;59.334;13.528;2023-02-28T05:00:00;102300.0;;;-1.6;81.5
78679;BME280;67994;59.334;13.528;2023-02-28T05:01:03;102300.0;;;-1.4;81.3
78679;BME280;67994;59.334;13.528;2023-02-28T05:02:00;102300.0;;;-1.4;81.0
78679;BME280;67994;59.334;13.528;2023-02-28T05:03:00;102300.0;;;-1.5;80.8
78679;BME280;67994;59.334;13.528;2023-02-28T05:04:02;102300.0;;;-1.4;80.3
78679;BME280;67994;59.334;13.528;2023-02-28T05:05:00;102300.0;;;-1.6;80.3
78679;BME280;67994;59.334;13.528;2023-02-28T05:06:00;102300.0;;;-1.5;80.5
78679;BME280;67994;59.334;13.528;2023-02-28T05:07:00;102300.0;;;-1.4;81.4
78679;BME280;67994;59.334;13.528;2023-02-28T05:08:00;102300.0;;;-1.6;80.8
78679;BME280;67994;59.334;13.528;2023-02-28T05:09:00;102300.0;;;-1.7;80.9
78679;BME280;67994;59.334;13.528;2023-02-28T05:10:00;102300.0;;;-1.5;81.5
78679;BME280;67994;59.334;13.528;2023-02-28T05:11:00;102300.0;;;-1.5;81.0
78679;BME280;67994;59.334;13.528;2023-02-28T05:12:00;102300.0;;;-1.4;81.6
78679;BME280;67994;59.334;13.528;2023-02-28T05:13:00;102300.0;;;-1.3;81.6
78679;BME280;67994;59.334;13.528;2023-02-28T05:14:00;102300.0;;;-1.3;81.5
78679;BME280;67994;59.334;13.528;2023-02-28T05:15:00;102300.0;;;-1.3;81.6
78679;BME280;67994;59.334;13.528;2023-02-28T05:16:00;102300.0;;;-1.5;81.5
78679;BME280;67994;59.334;13.528;2023-02-28T05:17:00;102300.0;;;-1.4;81.3
78679;BME280;67994;59.334;13.528;2023-02-28T05:18:00;102300.0;;;-1.5;81.1
78679;BME280;67994;59.334;13.528;2023-02-28T05:19:00;102300.0;;;-1.5;81.1
78679;BME280;67994;59.334;13.528;2023-02-28T05:20:00;102300.0;;;-1.5;81.4
78679;BME280;67994;59.334;13.528;2023-02-28T05:21:00;102300.0;;;-1.6;81.4
78679;BME280;67994;59.334;13.528;2023-02-28T05:22:00;102300.0;;;-1.6;81.1
78679;BME280;67994;59.334;13.528;2023-02-28T05:23:00;102400.0;;;-1.5;81.3
78679;BME280;67994;59.334;13.528;2023-02-28T05:24:02;102400.0;;;-1.5;81.4
78679;BME280;67994;59.334;13.528;2023-02-28T05:25:00;102300.0;;;-1.6;81.6
78679;BME280;67994;59.334;13.528;2023-02-28T05:26:00;102400.0;;;-1.5;81.3